Blossom Valley (240) Station Data

Red Flag Warning: No
Fire Weather Zone: 250
SDGE Region: Eastern
Lat/Lon: 32.868/-116.843

Observations

Time Wind Speed/Gust Temp(F) RH Fuel Moist Fuel Temp(F) Dewpt(F) Tmax(F) Tmin(F) Accum Precip 10-min Precip SL Press(mb)
5/24 8:30am 260 7 G 14 64° 93% - - 62° 68.7° 55.4° - - -
5/24 8:20am 190 2 G 9 68° 65% - - 56° 68.7° 55.4° - - -
5/24 8:10am 145 3 G 6 66° 81% - - 60° 67.9° 55.4° - - -
5/24 8:00am 83 2 G 4 62° 100% - - 62° 63.9° 55.4° - - -
5/24 7:50am 124 2 G 5 60° 100% - - 60° 63.9° 55.4° - - -
5/24 7:40am 78 3 G 5 58° 100% - - 58° 63.9° 55.4° - - -
5/24 7:30am 93 1 G 3 57° 100% - - 57° 63.9° 55.4° - - -
5/24 7:20am 95 3 G 6 57° 100% - - 57° 63.9° 55.4° - - -
5/24 7:10am 67 3 G 7 56° 100% - - 56° 63.9° 55.4° - - -
5/24 7:00am 40 1 G 2 56° 100% - - 56° 63.9° 55.4° - - -
5/24 6:50am 265 3 G 7 56° 100% - - 56° 63.9° 55.4° - - -
5/24 6:40am 244 5 G 9 56° 100% - - 56° 63.9° 55.4° - - -
5/24 6:30am 240 3 G 7 56° 100% - - 56° 63.9° 55.4° - - -
5/24 6:20am 255 3 G 7 56° 100% - - 56° 63.9° 55.4° - - -
5/24 6:10am 251 5 G 8 56° 100% - - 56° 63.9° 55.4° - - -
5/24 6:00am 260 5 G 8 58° 99% - - 58° 63.9° 55.4° - - -
5/24 5:50am 18 3 G 6 60° 99% - - 59° 63.9° 55.4° - - -
5/24 5:40am 35 4 G 6 59° 100% - - 59° 63.9° 55.4° - - -
5/24 5:30am 64 6 G 9 58° 100% - - 58° 63.9° 55.4° - - -
5/24 5:20am 68 7 G 10 58° 100% - - 58° 63.9° 55.4° - - -
5/24 5:10am 70 7 G 10 56° 100% - - 56° 63.9° 55.4° - - -
5/24 5:00am 64 5 G 10 56° 100% - - 56° 63.9° 55.4° - - -
5/24 4:50am 68 4 G 9 56° 100% - - 56° 63.9° 55.4° - - -
5/24 4:40am 62 3 G 6 56° 100% - - 56° 63.9° 55.4° - - -
5/24 4:30am 77 2 G 6 56° 100% - - 56° 63.9° 55.6° - - -
5/24 4:20am 69 1 G 3 56° 100% - - 56° 63.9° 55.8° - - -
5/24 4:10am 88 1 G 3 56° 100% - - 56° 63.9° 55.8° - - -
5/24 4:00am 65 2 G 3 56° 100% - - 57° 63.9° 56.2° - - -
5/24 3:50am 274 0 G 2 57° 100% - - 57° 63.9° 56.3° - - -
5/24 3:40am 94 1 G 3 57° 100% - - 57° 63.9° 56.3° - - -
5/24 3:30am 223 1 G 3 57° 100% - - 57° 63.9° 56.3° - - -
5/24 3:20am 274 2 G 5 57° 100% - - 57° 63.9° 56.3° - - -
5/24 3:10am 252 2 G 4 57° 100% - - 57° 63.9° 56.3° - - -
5/24 3:00am 268 2 G 3 57° 100% - - 57° 63.9° 56.4° - - -
5/24 2:50am 350 1 G 2 58° 100% - - 58° 63.9° 57.2° - - -
5/24 2:40am 41 1 G 3 58° 100% - - 58° 63.9° 57.2° - - -
5/24 2:30am 159 0 G 1 58° 100% - - 58° 63.9° 57.3° - - -
5/24 2:20am 9 1 G 2 59° 100% - - 59° 63.9° 58.3° - - -
5/24 2:10am 41 1 G 2 59° 100% - - 59° 63.9° 58.3° - - -
5/24 2:00am 52 0 G 1 59° 100% - - 59° 63.9° 58.4° - - -
5/24 1:50am 47 2 G 2 59° 100% - - 59° 63.9° 58.4° - - -
5/24 1:40am 39 0 G 1 59° 100% - - 59° 63.9° 58.9° - - -
5/24 1:30am 246 0 G 1 60° 100% - - 60° 63.9° 59.4° - - -
5/24 1:20am 306 0 G 1 61° 100% - - 61° 63.9° 60° - - -
5/24 1:10am 238 0 G 2 62° 100% - - 62° 63.9° 61.4° - - -
5/24 1:00am 62 2 G 6 63° 100% - - 63° 63.9° 61.4° - - -
5/24 12:50am 40 3 G 6 63° 100% - - 63° 63.8° 61.4° - - -
5/24 12:40am 19 1 G 2 63° 100% - - 63° 63.1° 61.4° - - -
5/24 12:30am 28 2 G 3 62° 100% - - 62° 62.9° 61.4° - - -
5/24 12:20am 35 4 G 5 62° 100% - - 62° 62.9° 61.4° - - -
5/24 12:10am 360 2 G 4 63° 100% - - 63° 62.9° 62° - - -
5/24 12:00am 297 1 G 2 63° 100% - - 63° 86.1° 57.1° - - -
5/23 11:50pm 286 0 G 1 63° 100% - - 63° 86.1° 57.1° - - -
5/23 11:40pm 289 1 G 2 63° 99% - - 63° 86.1° 57.1° - - -
5/23 11:30pm 269 1 G 2 64° 91% - - 61° 86.1° 57.1° - - -
5/23 11:20pm 284 0 G 2 65° 82% - - 59° 86.1° 57.1° - - -
5/23 11:10pm 52 0 G 2 66° 78% - - 59° 86.1° 57.1° - - -
5/23 11:00pm 53 1 G 2 66° 75% - - 58° 86.1° 57.1° - - -
5/23 10:50pm 31 1 G 2 67° 74% - - 58° 86.1° 57.1° - - -
5/23 10:40pm 292 2 G 2 67° 72% - - 58° 86.1° 57.1° - - -
5/23 10:30pm 1 2 G 4 68° 69% - - 57° 86.1° 57.1° - - -
5/23 10:20pm 31 2 G 3 68° 68% - - 57° 86.1° 57.1° - - -
5/23 10:10pm 24 2 G 2 68° 68% - - 57° 86.1° 57.1° - - -
5/23 10:00pm 27 2 G 3 68° 69% - - 58° 86.1° 57.1° - - -
5/23 9:50pm 36 2 G 3 68° 68% - - 57° 86.1° 57.1° - - -
5/23 9:40pm 39 1 G 3 69° 64% - - 56° 86.1° 57.1° - - -
5/23 9:30pm 350 1 G 2 69° 65% - - 57° 86.1° 57.1° - - -
5/23 9:20pm 349 0 G 1 69° 63% - - 56° 86.1° 57.1° - - -
5/23 9:10pm 292 1 G 2 70° 61% - - 56° 86.1° 57.1° - - -
5/23 9:00pm 312 2 G 3 70° 60% - - 56° 86.1° 57.1° - - -
5/23 8:50pm 292 2 G 4 71° 58% - - 55° 86.1° 57.1° - - -
5/23 8:40pm 289 2 G 4 71° 56% - - 54° 86.1° 57.1° - - -
5/23 8:30pm 300 3 G 4 72° 54% - - 54° 86.1° 57.1° - - -
5/23 8:20pm 285 1 G 3 72° 54% - - 54° 86.1° 57.1° - - -
5/23 8:10pm 276 1 G 3 73° 52% - - 54° 86.1° 57.1° - - -
5/23 8:00pm 283 2 G 4 73° 51% - - 54° 86.1° 57.1° - - -
5/23 7:50pm 271 2 G 3 74° 49% - - 54° 86.1° 57.1° - - -
5/23 7:40pm 240 1 G 3 75° 47% - - 54° 86.1° 57.1° - - -
5/23 7:30pm 263 3 G 5 76° 46% - - 53° 86.1° 57.1° - - -
5/23 7:20pm 256 4 G 7 76° 45% - - 53° 86.1° 57.1° - - -
5/23 7:10pm 249 4 G 8 77° 43% - - 53° 86.1° 57.1° - - -
5/23 7:00pm 243 5 G 8 78° 41% - - 52° 86.1° 57.1° - - -
5/23 6:50pm 241 6 G 10 78° 41% - - 52° 86.1° 57.1° - - -
5/23 6:40pm 243 7 G 10 79° 40% - - 52° 86.1° 57.1° - - -
5/23 6:30pm 247 8 G 14 79° 39% - - 52° 86.1° 57.1° - - -
5/23 6:20pm 242 8 G 13 79° 39% - - 52° 86.1° 57.1° - - -
5/23 6:10pm 247 9 G 13 81° 36% - - 52° 86.1° 57.1° - - -
5/23 6:00pm 258 8 G 12 82° 30% - - 48° 86.1° 57.1° - - -
5/23 5:50pm 263 9 G 14 83° 29% - - 48° 86.1° 57.1° - - -
5/23 5:40pm 262 8 G 12 84° 27% - - 47° 86.1° 57.1° - - -
5/23 5:30pm 251 7 G 11 84° 27% - - 46° 86.1° 57.1° - - -
5/23 5:20pm 246 5 G 10 84° 28% - - 47° 86.1° 57.1° - - -
5/23 5:10pm 248 6 G 10 84° 29% - - 48° 86.1° 57.1° - - -
5/23 5:00pm 249 6 G 10 84° 30% - - 49° 86.1° 57.1° - - -
5/23 4:50pm 244 4 G 8 84° 30% - - 50° 86.1° 57.1° - - -
5/23 4:40pm 235 4 G 8 84° 31% - - 50° 86.1° 57.1° - - -
5/23 4:30pm 241 4 G 10 83° 33% - - 51° 86.1° 57.1° - - -
5/23 4:20pm 243 5 G 9 82° 34% - - 51° 86.1° 57.1° - - -
5/23 4:10pm 247 5 G 10 82° 36% - - 52° 86.1° 57.1° - - -
5/23 4:00pm 257 5 G 10 82° 36% - - 53° 86.1° 57.1° - - -
5/23 3:50pm 244 5 G 11 81° 39% - - 53° 86.1° 57.1° - - -
5/23 3:40pm 236 5 G 9 81° 40% - - 54° 86.1° 57.1° - - -
5/23 3:30pm 250 6 G 10 80° 41% - - 54° 86.1° 57.1° - - -
5/23 3:20pm 248 6 G 11 80° 42% - - 55° 86.1° 57.1° - - -
5/23 3:10pm 248 5 G 8 80° 44% - - 56° 86.1° 57.1° - - -
5/23 3:00pm 237 4 G 9 78° 46% - - 56° 86.1° 57.1° - - -
5/23 2:50pm 252 5 G 9 78° 48% - - 57° 86.1° 57.1° - - -
5/23 2:40pm 252 6 G 11 77° 49% - - 57° 86.1° 57.1° - - -
5/23 2:30pm 266 6 G 10 78° 48% - - 57° 86.1° 57.1° - - -
5/23 2:20pm 257 6 G 10 77° 50% - - 57° 86.1° 57.1° - - -
5/23 2:10pm 251 7 G 11 77° 50% - - 57° 86.1° 57.1° - - -
5/23 2:00pm 254 8 G 12 77° 51% - - 57° 86.1° 57.1° - - -
5/23 1:50pm 251 8 G 14 77° 50% - - 57° 86.1° 57.1° - - -
5/23 1:40pm 254 7 G 12 78° 49% - - 57° 86.1° 57.1° - - -
5/23 1:30pm 248 8 G 14 78° 50% - - 57° 86.1° 57.1° - - -
5/23 1:20pm 253 9 G 14 78° 50% - - 57° 86.1° 57.1° - - -
5/23 1:10pm 252 9 G 13 78° 50% - - 57° 86.1° 57.1° - - -
5/23 1:00pm 257 9 G 14 77° 51% - - 58° 86.1° 57.1° - - -
5/23 12:50pm 263 10 G 16 77° 51% - - 58° 86.1° 57.1° - - -
5/23 12:40pm 256 11 G 15 78° 50% - - 57° 86.1° 57.1° - - -
5/23 12:30pm 259 11 G 15 78° 48% - - 57° 86.1° 57.1° - - -
5/23 12:20pm 256 11 G 15 79° 46% - - 57° 86.1° 57.1° - - -
5/23 12:10pm 257 11 G 17 81° 43% - - 56° 86.1° 57.1° - - -
5/23 12:00pm 257 12 G 19 83° 36% - - 53° 86.1° 57.1° - - -
5/23 11:50am 251 9 G 13 85° 25% - - 45° 86.1° 57.1° - - -
5/23 11:40am 252 8 G 13 85° 24% - - 44° 85.7° 57.1° - - -
5/23 11:30am 243 8 G 12 85° 27% - - 46° 85.2° 57.1° - - -
5/23 11:20am 258 8 G 13 84° 27% - - 47° 85.2° 57.1° - - -
5/23 11:10am 254 6 G 12 84° 27% - - 46° 85.2° 57.1° - - -
5/23 11:00am 251 7 G 11 84° 27% - - 47° 85.2° 57.1° - - -
5/23 10:50am 243 6 G 10 84° 27% - - 47° 85.2° 57.1° - - -
5/23 10:40am 238 5 G 8 85° 24% - - 43° 85.2° 57.1° - - -
5/23 10:30am 236 3 G 7 84° 23% - - 43° 84.9° 57.1° - - -
5/23 10:20am 240 2 G 4 83° 26% - - 44° 84° 57.1° - - -
5/23 10:10am 243 3 G 5 82° 28% - - 45° 81.8° 57.1° - - -
5/23 10:00am 238 3 G 5 81° 30% - - 46° 81° 57.1° - - -
5/23 9:50am 234 3 G 5 80° 30% - - 46° 80.6° 57.1° - - -
5/23 9:40am 249 2 G 4 79° 31% - - 46° 79.9° 57.1° - - -
5/23 9:30am 235 2 G 4 79° 33% - - 48° 79.9° 57.1° - - -
5/23 9:20am 220 1 G 3 78° 36% - - 49° 79° 57.1° - - -
5/23 9:10am 246 1 G 3 76° 38% - - 49° 78° 57.1° - - -
5/23 9:00am 246 3 G 5 75° 41% - - 50° 78° 57.1° - - -
5/23 8:50am 263 3 G 5 76° 43% - - 52° 78° 57.1° - - -
5/23 8:40am 118 1 G 3 76° 36% - - 47° 77.8° 57.1° - - -
5/23 8:30am 126 1 G 3 73° 46% - - 51° 75° 57.1° - - -
5/23 8:20am 133 1 G 2 68° 69% - - 58° 70.8° 57.1° - - -
5/23 8:10am 83 1 G 2 64° 83% - - 59° 65.7° 57.1° - - -
5/23 8:00am 256 1 G 2 64° 83% - - 58° 64.7° 57.1° - - -
5/23 7:50am 261 2 G 3 63° 86% - - 59° 64.7° 57.1° - - -
5/23 7:40am 178 1 G 3 63° 92% - - 60° 64.7° 57.1° - - -
5/23 7:30am 231 0 G 1 61° 100% - - 61° 64.7° 57.1° - - -
5/23 7:20am 265 1 G 2 61° 100% - - 61° 64.7° 57.1° - - -
5/23 7:10am 218 1 G 2 61° 100% - - 61° 64.7° 57.1° - - -
5/23 7:00am 248 0 G 1 60° 95% - - 59° 64.7° 57.1° - - -
5/23 6:50am 252 1 G 2 61° 76% - - 53° 64.7° 57.1° - - -
5/23 6:40am 292 2 G 3 63° 62% - - 50° 64.7° 57.1° - - -
5/23 6:30am 48 1 G 2 61° 68% - - 51° 64.7° 57.1° - - -
5/23 6:20am 63 0 G 1 60° 75% - - 52° 64.7° 57.1° - - -
5/23 6:10am 329 1 G 2 60° 90% - - 57° 64.7° 57.1° - - -
5/23 6:00am 0 0 G 0 59° 85% - - 55° 64.7° 57.1° - - -